createdAt,value
2023-05-19T00:02:09.340Z,12.56
2023-05-19T00:04:37.091Z,12.52
2023-05-19T00:07:05.573Z,12.49
2023-05-19T00:09:34.556Z,12.47
2023-05-19T00:12:01.162Z,12.43
2023-05-19T00:14:29.058Z,12.39
2023-05-19T00:16:58.519Z,12.38
2023-05-19T00:19:25.573Z,12.34
2023-05-19T00:21:52.147Z,12.28
2023-05-19T00:24:18.773Z,12.24
2023-05-19T00:26:45.373Z,12.10
2023-05-19T00:29:11.880Z,12.14
2023-05-19T00:31:38.477Z,12.14
2023-05-19T00:34:05.077Z,12.11
2023-05-19T00:36:31.790Z,12.07
2023-05-19T00:38:58.241Z,12.03
2023-05-19T00:41:24.995Z,12.02
2023-05-19T00:43:51.647Z,11.98
2023-05-19T00:46:19.368Z,11.98
2023-05-19T00:48:45.980Z,11.95
2023-05-19T00:51:16.927Z,11.90
2023-05-19T00:53:50.356Z,11.88
2023-05-19T00:56:18.234Z,11.87
2023-05-19T00:58:45.502Z,11.85
2023-05-19T01:01:16.685Z,11.82
2023-05-19T01:03:44.282Z,11.80
2023-05-19T01:06:12.349Z,11.79
2023-05-19T01:08:39.402Z,11.78
2023-05-19T01:11:07.945Z,11.73
2023-05-19T01:13:35.698Z,11.76
2023-05-19T01:16:37.462Z,11.75
2023-05-19T01:19:24.439Z,11.69
2023-05-19T01:22:06.916Z,11.65
2023-05-19T01:24:58.903Z,11.61
2023-05-19T01:27:47.017Z,11.56
2023-05-19T01:30:29.368Z,11.56
2023-05-19T01:33:01.648Z,11.52
2023-05-19T01:35:29.224Z,11.53
2023-05-19T01:37:58.532Z,11.43
2023-05-19T01:40:26.538Z,11.45
2023-05-19T01:42:57.566Z,11.44
2023-05-19T01:45:25.698Z,11.42
2023-05-19T01:47:55.503Z,11.42
2023-05-19T01:50:22.541Z,11.41
2023-05-19T01:52:49.489Z,11.41
2023-05-19T01:55:16.079Z,11.37
2023-05-19T01:58:06.819Z,11.37
2023-05-19T02:01:03.271Z,11.36
2023-05-19T02:03:45.994Z,11.31
2023-05-19T02:06:22.927Z,11.29
2023-05-19T02:08:58.636Z,11.27
2023-05-19T02:11:46.488Z,11.25
2023-05-19T02:14:23.872Z,11.19
2023-05-19T02:16:50.830Z,11.15
2023-05-19T02:19:37.227Z,11.12
2023-05-19T02:22:03.862Z,11.10
2023-05-19T02:24:30.401Z,11.09
2023-05-19T02:26:56.919Z,11.10
2023-05-19T02:29:23.549Z,11.08
2023-05-19T02:31:50.229Z,11.08
2023-05-19T02:34:21.023Z,11.06
2023-05-19T02:36:49.777Z,11.04
2023-05-19T02:39:16.508Z,11.02
2023-05-19T02:41:42.944Z,11.01
2023-05-19T02:44:09.474Z,10.96
2023-05-19T02:46:36.262Z,10.92
2023-05-19T02:49:02.926Z,10.90
2023-05-19T02:51:29.442Z,10.89
2023-05-19T02:53:56.036Z,10.88
2023-05-19T02:56:26.419Z,10.88
2023-05-19T02:58:53.067Z,10.85
2023-05-19T03:01:21.334Z,10.83
2023-05-19T03:03:47.945Z,10.83
2023-05-19T03:06:15.663Z,10.84
2023-05-19T03:08:42.498Z,10.82
2023-05-19T03:11:09.175Z,10.79
2023-05-19T03:13:35.738Z,10.77
2023-05-19T03:16:03.421Z,10.68
2023-05-19T03:18:29.914Z,10.78
2023-05-19T03:20:56.579Z,10.76
2023-05-19T03:23:23.217Z,10.74
2023-05-19T03:25:49.736Z,10.73
2023-05-19T03:28:17.160Z,10.73
2023-05-19T03:30:43.655Z,10.73
2023-05-19T03:33:10.308Z,10.72
2023-05-19T03:35:36.956Z,10.72
2023-05-19T03:38:03.491Z,10.70
2023-05-19T03:40:37.222Z,10.69
2023-05-19T03:43:03.769Z,10.68
2023-05-19T03:45:30.362Z,10.64
2023-05-19T03:47:56.971Z,10.61
2023-05-19T03:50:23.475Z,10.62
2023-05-19T03:52:50.016Z,10.60
2023-05-19T03:55:16.740Z,10.61
2023-05-19T03:57:46.810Z,10.61
2023-05-19T04:00:13.758Z,10.62
2023-05-19T04:02:45.785Z,10.61
2023-05-19T04:05:12.259Z,10.60
2023-05-19T04:07:38.828Z,10.58
2023-05-19T04:10:06.066Z,10.61
2023-05-19T04:12:33.055Z,10.62
2023-05-19T04:14:59.775Z,10.61
2023-05-19T04:17:26.688Z,10.62
2023-05-19T04:19:53.837Z,10.65
2023-05-19T04:22:20.977Z,10.62
2023-05-19T04:24:51.013Z,10.67
2023-05-19T04:27:18.155Z,10.68
2023-05-19T04:29:46.052Z,10.71
2023-05-19T04:32:17.654Z,10.71
2023-05-19T04:34:47.265Z,10.70
2023-05-19T04:37:16.570Z,10.74
2023-05-19T04:39:45.117Z,10.75
2023-05-19T04:42:11.807Z,10.82
2023-05-19T04:44:40.214Z,10.82
2023-05-19T04:47:10.538Z,10.77
2023-05-19T04:49:39.828Z,10.85
2023-05-19T04:52:10.361Z,10.84
2023-05-19T04:54:37.897Z,10.89
2023-05-19T04:57:04.815Z,10.90
2023-05-19T04:59:31.476Z,10.94
2023-05-19T05:01:58.119Z,10.98
2023-05-19T05:04:25.213Z,11.06
2023-05-19T05:06:51.901Z,11.12
2023-05-19T05:09:21.288Z,11.20
2023-05-19T05:11:51.738Z,11.29
2023-05-19T05:14:19.268Z,11.33
2023-05-19T05:16:46.464Z,11.45
2023-05-19T05:19:13.417Z,11.58
2023-05-19T05:21:41.608Z,11.65
2023-05-19T05:24:09.282Z,11.71
2023-05-19T05:26:36.034Z,11.81
2023-05-19T05:29:03.727Z,11.92
2023-05-19T05:31:30.218Z,11.97
2023-05-19T05:33:56.804Z,12.07
2023-05-19T05:36:23.253Z,12.17
2023-05-19T05:38:52.663Z,12.29
2023-05-19T05:41:20.251Z,12.45
2023-05-19T05:43:46.740Z,12.56
2023-05-19T05:46:20.759Z,12.72
2023-05-19T05:48:47.475Z,12.94
2023-05-19T05:51:14.451Z,13.29
2023-05-19T05:53:44.761Z,13.63
2023-05-19T05:56:11.979Z,13.90
2023-05-19T05:58:40.577Z,14.22
2023-05-19T06:01:11.049Z,14.45
2023-05-19T06:03:41.994Z,14.67
2023-05-19T06:06:10.637Z,15.02
2023-05-19T06:08:37.166Z,15.41
2023-05-19T06:11:08.984Z,15.74
2023-05-19T06:13:36.222Z,16.21
2023-05-19T06:16:06.231Z,16.61
2023-05-19T06:18:32.857Z,16.98
2023-05-19T06:20:59.392Z,17.22
2023-05-19T06:23:26.982Z,17.48
2023-05-19T06:25:53.454Z,17.79
2023-05-19T06:28:19.905Z,18.03
2023-05-19T06:30:46.418Z,18.27
2023-05-19T06:33:13.093Z,18.29
2023-05-19T06:35:39.578Z,18.41
2023-05-19T06:38:06.029Z,18.33
2023-05-19T06:40:32.794Z,18.21
2023-05-19T06:42:59.357Z,18.16
2023-05-19T06:45:26.012Z,18.17
2023-05-19T06:47:52.828Z,18.25
2023-05-19T06:50:19.304Z,18.33
2023-05-19T06:52:47.093Z,18.38
2023-05-19T06:55:13.538Z,18.39
2023-05-19T06:57:40.047Z,18.41
2023-05-19T07:00:10.297Z,18.56
2023-05-19T07:02:36.883Z,18.68
2023-05-19T07:05:03.931Z,18.77
2023-05-19T07:07:30.408Z,18.83
2023-05-19T07:09:57.032Z,18.99
2023-05-19T07:12:23.458Z,19.00
2023-05-19T07:14:49.893Z,19.01
2023-05-19T07:17:16.751Z,19.13
2023-05-19T07:19:43.233Z,19.19
2023-05-19T07:22:09.735Z,19.15
2023-05-19T07:24:39.130Z,19.08
2023-05-19T07:27:09.775Z,19.03
2023-05-19T07:29:36.618Z,19.13
2023-05-19T07:32:12.760Z,19.18
2023-05-19T07:34:40.539Z,19.24
2023-05-19T07:37:09.622Z,19.29
2023-05-19T07:39:36.432Z,19.30
2023-05-19T07:42:03.210Z,19.27
2023-05-19T07:44:31.373Z,19.21
2023-05-19T07:46:57.911Z,19.21
2023-05-19T07:49:24.446Z,19.19
2023-05-19T07:51:50.935Z,19.28
2023-05-19T07:54:17.485Z,19.45
2023-05-19T07:56:53.104Z,19.69
2023-05-19T07:59:19.610Z,19.96
2023-05-19T08:01:46.239Z,20.26
2023-05-19T08:04:13.444Z,20.58
2023-05-19T08:06:40.182Z,20.92
2023-05-19T08:09:07.770Z,21.22
2023-05-19T08:11:34.375Z,21.48
2023-05-19T08:14:00.959Z,21.73
2023-05-19T08:16:27.696Z,21.85
2023-05-19T08:18:56.502Z,21.83
2023-05-19T08:21:23.065Z,21.84
2023-05-19T08:23:49.572Z,21.77
2023-05-19T08:26:16.335Z,21.84
2023-05-19T08:28:44.153Z,21.91
2023-05-19T08:31:10.876Z,21.95
2023-05-19T08:33:37.414Z,22.18
2023-05-19T08:36:04.437Z,22.31
2023-05-19T08:38:33.592Z,22.30
2023-05-19T08:41:00.055Z,22.39
2023-05-19T08:43:26.537Z,22.35
2023-05-19T08:45:54.160Z,22.28
2023-05-19T08:48:22.184Z,22.34
2023-05-19T08:51:14.483Z,22.40
2023-05-19T08:53:45.897Z,22.50
2023-05-19T08:56:16.544Z,22.64
2023-05-19T08:58:44.754Z,22.71
2023-05-19T09:01:17.617Z,22.90
2023-05-19T09:03:49.730Z,23.12
2023-05-19T09:06:16.992Z,23.29
2023-05-19T09:08:44.263Z,23.49
2023-05-19T09:11:11.874Z,23.65
2023-05-19T09:13:39.122Z,23.78
2023-05-19T09:16:06.290Z,24.03
2023-05-19T09:18:32.856Z,24.18
2023-05-19T09:21:07.519Z,24.41
2023-05-19T09:23:34.180Z,24.47
2023-05-19T09:26:09.889Z,24.22
2023-05-19T09:28:38.266Z,24.00
2023-05-19T09:31:09.748Z,23.94
2023-05-19T09:33:36.880Z,23.87
2023-05-19T09:36:06.189Z,23.82
2023-05-19T09:38:33.032Z,23.82
2023-05-19T09:41:01.052Z,23.88
2023-05-19T09:43:29.276Z,23.98
2023-05-19T09:46:16.113Z,24.03
2023-05-19T09:48:45.900Z,24.08
2023-05-19T09:51:12.444Z,24.18
2023-05-19T09:53:40.660Z,24.26
2023-05-19T09:56:08.789Z,24.31
2023-05-19T09:58:36.541Z,24.38
2023-05-19T10:01:04.280Z,24.33
2023-05-19T10:03:34.733Z,24.17
2023-05-19T10:06:04.320Z,24.13
2023-05-19T10:08:31.833Z,24.16
2023-05-19T10:11:01.648Z,24.21
2023-05-19T10:13:29.659Z,24.22
2023-05-19T10:15:59.738Z,24.21
2023-05-19T10:18:29.212Z,24.26
2023-05-19T10:20:57.742Z,24.34
2023-05-19T10:23:27.306Z,24.41
2023-05-19T10:25:58.274Z,24.52
2023-05-19T10:28:31.580Z,24.83
2023-05-19T10:31:04.678Z,24.96
2023-05-19T10:34:09.287Z,25.10
2023-05-19T10:36:47.672Z,25.12
2023-05-19T10:39:29.681Z,25.15
2023-05-19T10:42:41.318Z,25.25
2023-05-19T10:45:27.683Z,25.28
2023-05-19T10:47:54.754Z,25.24
2023-05-19T10:50:24.382Z,25.26
2023-05-19T10:52:56.421Z,25.19
2023-05-19T10:55:45.965Z,25.10
2023-05-19T10:58:12.498Z,25.04
2023-05-19T11:00:39.786Z,24.99
2023-05-19T11:03:16.703Z,24.88
2023-05-19T11:05:45.646Z,24.86
2023-05-19T11:08:32.205Z,24.75
2023-05-19T11:11:13.380Z,24.76
2023-05-19T11:13:42.960Z,24.72
2023-05-19T11:16:10.199Z,24.60
2023-05-19T11:18:38.372Z,24.71
2023-05-19T11:21:05.312Z,24.80
2023-05-19T11:23:38.211Z,24.86
2023-05-19T11:26:07.640Z,24.97
2023-05-19T11:28:34.196Z,24.98
2023-05-19T11:31:02.181Z,25.20
2023-05-19T11:33:28.776Z,25.31
2023-05-19T11:35:59.239Z,25.49
2023-05-19T11:38:28.056Z,25.49
2023-05-19T11:40:54.994Z,25.36
2023-05-19T11:43:25.034Z,25.35
2023-05-19T11:45:51.828Z,25.35
2023-05-19T11:48:24.702Z,25.41
2023-05-19T11:50:51.530Z,25.49
2023-05-19T11:53:19.595Z,25.48
2023-05-19T11:55:47.493Z,25.59
2023-05-19T11:58:17.612Z,25.53
2023-05-19T12:00:47.331Z,25.43
2023-05-19T12:03:14.044Z,25.55
2023-05-19T12:05:47.348Z,25.76
2023-05-19T12:08:16.169Z,25.90
2023-05-19T12:10:42.667Z,25.90
2023-05-19T12:13:09.963Z,25.91
2023-05-19T12:15:37.479Z,25.87
2023-05-19T12:18:04.261Z,25.95
2023-05-19T12:20:39.265Z,25.95
2023-05-19T12:23:05.941Z,25.89
2023-05-19T12:25:34.070Z,25.86
2023-05-19T12:28:05.356Z,25.78
2023-05-19T12:30:33.655Z,25.74
2023-05-19T12:33:02.379Z,25.68
2023-05-19T12:35:33.827Z,25.48
2023-05-19T12:38:11.375Z,25.52
2023-05-19T12:40:42.453Z,25.68
2023-05-19T12:43:19.111Z,25.81
2023-05-19T12:45:45.866Z,25.94
2023-05-19T12:48:12.699Z,26.05
2023-05-19T12:50:40.647Z,26.17
2023-05-19T12:53:14.191Z,26.30
2023-05-19T12:55:45.002Z,26.32
2023-05-19T12:58:12.632Z,26.22
2023-05-19T13:00:45.391Z,26.08
2023-05-19T13:03:20.202Z,25.82
2023-05-19T13:05:48.951Z,25.70
2023-05-19T13:08:20.470Z,25.77
2023-05-19T13:10:47.651Z,25.87
2023-05-19T13:13:16.690Z,25.87
2023-05-19T13:15:52.145Z,25.91
2023-05-19T13:18:18.814Z,26.03
2023-05-19T13:20:46.997Z,26.08
2023-05-19T13:23:14.263Z,26.08
2023-05-19T13:25:41.587Z,26.06
2023-05-19T13:28:08.577Z,25.96
2023-05-19T13:30:38.201Z,25.77
2023-05-19T13:33:05.491Z,25.70
2023-05-19T13:35:37.003Z,25.51
2023-05-19T13:38:05.544Z,25.50
2023-05-19T13:40:35.468Z,25.38
2023-05-19T13:43:02.974Z,25.27
2023-05-19T13:45:29.523Z,25.22
2023-05-19T13:47:56.588Z,25.13
2023-05-19T13:50:23.298Z,25.14
2023-05-19T13:52:53.281Z,25.19
2023-05-19T13:55:19.875Z,25.19
2023-05-19T13:57:46.291Z,24.91
2023-05-19T14:00:13.320Z,24.82
2023-05-19T14:02:40.595Z,24.72
2023-05-19T14:05:08.692Z,24.65
2023-05-19T14:07:35.848Z,24.46
2023-05-19T14:10:05.341Z,24.43
2023-05-19T14:12:41.535Z,24.47
2023-05-19T14:15:18.742Z,24.41
2023-05-19T14:17:45.450Z,24.29
2023-05-19T14:20:12.480Z,24.20
2023-05-19T14:22:38.925Z,24.19
2023-05-19T14:25:06.031Z,24.13
2023-05-19T14:27:32.682Z,24.07
2023-05-19T14:29:59.129Z,24.04
2023-05-19T14:32:27.923Z,24.02
2023-05-19T14:34:58.628Z,24.06
2023-05-19T14:37:28.744Z,24.13
2023-05-19T14:39:55.601Z,24.29
2023-05-19T14:42:22.048Z,24.32
2023-05-19T14:44:48.475Z,24.32
2023-05-19T14:47:15.068Z,24.26
2023-05-19T14:49:41.621Z,24.26
2023-05-19T14:52:10.765Z,24.21
2023-05-19T14:54:37.219Z,24.15
2023-05-19T14:57:04.454Z,24.10
2023-05-19T14:59:37.429Z,24.03
2023-05-19T15:02:04.658Z,24.06
2023-05-19T15:04:33.732Z,24.08
2023-05-19T15:09:29.673Z,24.00
2023-05-19T15:11:56.124Z,23.92
2023-05-19T15:14:22.662Z,23.77
2023-05-19T15:16:50.574Z,23.66
2023-05-19T15:19:17.120Z,23.61
2023-05-19T15:21:45.569Z,23.57
2023-05-19T15:24:13.185Z,23.61
2023-05-19T15:26:39.719Z,23.60
2023-05-19T15:29:06.174Z,23.62
2023-05-19T15:31:37.997Z,23.57
2023-05-19T15:34:04.878Z,23.47
2023-05-19T15:36:32.823Z,23.42
2023-05-19T15:38:59.442Z,23.42
2023-05-19T15:41:28.977Z,23.45
2023-05-19T15:43:55.735Z,23.47
2023-05-19T15:46:22.696Z,23.37
2023-05-19T15:48:49.175Z,23.22
2023-05-19T15:51:15.912Z,23.14
2023-05-19T15:53:44.062Z,23.13
2023-05-19T15:56:10.749Z,23.15
2023-05-19T15:58:37.276Z,23.10
2023-05-19T16:01:03.809Z,22.92
2023-05-19T16:03:32.997Z,22.81
2023-05-19T16:05:59.542Z,22.82
2023-05-19T16:08:28.970Z,22.80
2023-05-19T16:10:55.549Z,22.81
2023-05-19T16:13:23.762Z,22.82
2023-05-19T16:15:54.735Z,22.78
2023-05-19T16:18:21.390Z,22.72
2023-05-19T16:20:47.858Z,22.84
2023-05-19T16:23:16.000Z,22.82
2023-05-19T16:25:44.615Z,22.80
2023-05-19T16:28:11.268Z,22.74
2023-05-19T16:30:38.002Z,22.64
2023-05-19T16:33:04.836Z,22.54
2023-05-19T16:35:32.094Z,22.55
2023-05-19T16:37:58.604Z,22.53
2023-05-19T16:40:30.144Z,22.51
2023-05-19T16:42:57.426Z,22.43
2023-05-19T16:45:23.971Z,22.28
2023-05-19T16:47:54.154Z,22.23
2023-05-19T16:50:20.726Z,22.06
2023-05-19T16:52:47.238Z,21.92
2023-05-19T16:55:19.378Z,21.79
2023-05-19T17:00:15.874Z,21.61
2023-05-19T17:02:42.577Z,21.65
2023-05-19T17:05:09.460Z,21.67
2023-05-19T17:07:35.987Z,21.67
2023-05-19T17:10:06.018Z,21.65
2023-05-19T17:12:32.778Z,21.69
2023-05-19T17:14:59.275Z,21.69
2023-05-19T17:17:25.817Z,21.69
2023-05-19T17:19:52.330Z,21.63
2023-05-19T17:22:19.185Z,21.51
2023-05-19T17:24:48.216Z,21.42
2023-05-19T17:27:15.080Z,21.23
2023-05-19T17:29:41.652Z,21.10
2023-05-19T17:32:08.237Z,20.98
2023-05-19T17:34:36.053Z,20.83
2023-05-19T17:37:02.570Z,20.94
2023-05-19T17:39:29.651Z,20.98
2023-05-19T17:41:56.336Z,20.92
2023-05-19T17:44:23.445Z,20.88
2023-05-19T17:46:50.063Z,20.87
2023-05-19T17:49:16.884Z,20.82
2023-05-19T17:51:43.633Z,20.83
2023-05-19T17:54:10.299Z,20.79
2023-05-19T17:56:42.276Z,20.78
2023-05-19T17:59:09.105Z,20.73
2023-05-19T18:01:35.957Z,20.67
2023-05-19T18:04:09.168Z,20.62
2023-05-19T18:06:40.572Z,20.59
2023-05-19T18:09:10.869Z,20.63
2023-05-19T18:11:37.433Z,20.59
2023-05-19T18:14:03.884Z,20.53
2023-05-19T18:16:30.454Z,20.53
2023-05-19T18:18:57.048Z,20.51
2023-05-19T18:21:24.541Z,20.48
2023-05-19T18:23:51.482Z,20.43
2023-05-19T18:26:17.970Z,20.36
2023-05-19T18:28:45.790Z,20.34
2023-05-19T18:31:19.002Z,20.32
2023-05-19T18:33:47.075Z,20.24
2023-05-19T18:36:16.298Z,20.27
2023-05-19T18:38:44.716Z,20.20
2023-05-19T18:41:13.556Z,20.22
2023-05-19T18:43:40.257Z,20.20
2023-05-19T18:46:06.848Z,20.15
2023-05-19T18:48:33.363Z,20.17
2023-05-19T18:51:00.180Z,20.23
2023-05-19T18:53:26.726Z,20.20
2023-05-19T18:55:53.171Z,20.20
2023-05-19T18:58:19.661Z,20.20
2023-05-19T19:00:49.113Z,20.17
2023-05-19T19:03:15.846Z,20.14
2023-05-19T19:05:43.586Z,20.13
2023-05-19T19:08:10.162Z,20.13
2023-05-19T19:10:39.076Z,20.11
2023-05-19T19:13:06.029Z,20.09
2023-05-19T19:15:32.569Z,20.03
2023-05-19T19:17:59.178Z,19.93
2023-05-19T19:20:25.792Z,19.87
2023-05-19T19:22:52.849Z,19.90
2023-05-19T19:25:23.083Z,19.89
2023-05-19T19:27:52.773Z,19.85
2023-05-19T19:30:19.422Z,19.77
2023-05-19T19:32:45.999Z,19.72
2023-05-19T19:35:12.634Z,19.69
2023-05-19T19:37:39.059Z,19.63
2023-05-19T19:40:06.481Z,19.54
2023-05-19T19:42:35.532Z,19.49
2023-05-19T19:45:02.049Z,19.41
2023-05-19T19:47:28.572Z,19.36
2023-05-19T19:49:55.930Z,19.28
2023-05-19T19:52:22.420Z,19.17
2023-05-19T19:54:49.030Z,19.15
2023-05-19T19:57:17.223Z,19.09
2023-05-19T19:59:43.775Z,19.03
2023-05-19T20:02:10.459Z,18.98
2023-05-19T20:04:38.378Z,18.95
2023-05-19T20:07:05.064Z,18.91
2023-05-19T20:09:31.606Z,18.90
2023-05-19T20:11:58.164Z,18.86
2023-05-19T20:14:26.485Z,18.82
2023-05-19T20:16:53.015Z,18.79
2023-05-19T20:19:20.494Z,18.73
2023-05-19T20:21:46.951Z,18.65
2023-05-19T20:24:13.492Z,18.60
2023-05-19T20:26:40.045Z,18.56
2023-05-19T20:29:06.565Z,18.54
2023-05-19T20:31:33.010Z,18.45
2023-05-19T20:34:02.199Z,18.35
2023-05-19T20:36:28.710Z,18.27
2023-05-19T20:38:55.212Z,18.20
2023-05-19T20:41:22.461Z,18.15
2023-05-19T20:43:52.203Z,18.13
2023-05-19T20:46:18.726Z,18.11
2023-05-19T20:48:45.385Z,18.10
2023-05-19T20:51:11.861Z,18.07
2023-05-19T20:53:38.490Z,18.04
2023-05-19T20:56:06.822Z,17.96
2023-05-19T20:58:33.361Z,17.89
2023-05-19T21:00:59.937Z,17.87
2023-05-19T21:03:27.231Z,17.85
2023-05-19T21:05:54.890Z,17.80
2023-05-19T21:08:21.475Z,17.73
2023-05-19T21:10:48.387Z,17.67
2023-05-19T21:13:15.028Z,17.78
2023-05-19T21:15:47.006Z,17.75
2023-05-19T21:18:13.436Z,17.65
2023-05-19T21:20:39.959Z,17.57
2023-05-19T21:23:06.471Z,17.47
2023-05-19T21:25:32.980Z,17.44
2023-05-19T21:27:59.625Z,17.40
2023-05-19T21:30:26.171Z,17.36
2023-05-19T21:32:52.745Z,17.27
2023-05-19T21:35:19.331Z,17.26
2023-05-19T21:37:46.925Z,17.21
2023-05-19T21:40:13.428Z,17.10
2023-05-19T21:42:39.870Z,17.05
2023-05-19T21:45:06.938Z,17.04
2023-05-19T21:47:33.437Z,17.02
2023-05-19T21:49:59.868Z,17.02
2023-05-19T21:52:26.483Z,16.98
2023-05-19T21:54:55.473Z,16.96
2023-05-19T21:57:21.972Z,16.93
2023-05-19T21:59:48.567Z,16.91
2023-05-19T22:02:15.622Z,16.90
2023-05-19T22:04:42.867Z,16.86
2023-05-19T22:07:09.329Z,16.85
2023-05-19T22:09:35.928Z,16.80
2023-05-19T22:12:02.436Z,16.73
2023-05-19T22:14:29.014Z,16.68
2023-05-19T22:16:55.614Z,16.65
2023-05-19T22:19:22.136Z,16.57
2023-05-19T22:21:50.407Z,16.56
2023-05-19T22:24:23.221Z,16.56
2023-05-19T22:26:49.736Z,16.56
2023-05-19T22:29:18.438Z,16.54
2023-05-19T22:31:47.457Z,16.53
2023-05-19T22:34:16.661Z,16.57
2023-05-19T22:36:45.908Z,16.56
2023-05-19T22:39:15.289Z,16.51
2023-05-19T22:41:42.024Z,16.48
2023-05-19T22:44:10.368Z,16.41
2023-05-19T22:46:37.131Z,16.41
2023-05-19T22:49:03.653Z,16.40
2023-05-19T22:51:30.198Z,16.33
2023-05-19T22:53:56.688Z,16.32
2023-05-19T22:56:23.230Z,16.28
2023-05-19T22:58:49.769Z,16.25
2023-05-19T23:01:17.074Z,16.25
2023-05-19T23:03:46.229Z,16.22
2023-05-19T23:06:12.782Z,16.18
2023-05-19T23:08:39.549Z,16.01
2023-05-19T23:11:05.958Z,16.09
2023-05-19T23:13:32.454Z,16.05
2023-05-19T23:15:58.943Z,15.97
2023-05-19T23:18:25.485Z,15.93
2023-05-19T23:20:52.865Z,15.91
2023-05-19T23:23:19.484Z,15.88
2023-05-19T23:25:46.288Z,15.78
2023-05-19T23:28:12.742Z,15.85
2023-05-19T23:30:39.416Z,15.81
2023-05-19T23:33:07.213Z,15.77
2023-05-19T23:35:34.100Z,15.76
2023-05-19T23:38:00.989Z,15.70
2023-05-19T23:40:27.516Z,15.75
2023-05-19T23:42:54.060Z,15.69
2023-05-19T23:45:20.605Z,15.63
2023-05-19T23:47:47.018Z,15.60
2023-05-19T23:50:13.566Z,15.56
2023-05-19T23:52:40.133Z,15.49
2023-05-19T23:55:07.422Z,15.45
2023-05-19T23:57:33.892Z,15.45
